Aviation Digital Data Service (ADDS)

Output produced by TAFs form (0924 UTC 19 August 2017)
found at http://aviationweather.gov/adds/tafs/
 
KMTJ 190530Z 1906/2006 13009KT P6SM SKC 
     FM191500 VRB03KT P6SM SKC 
     FM191900 34005KT P6SM FEW140 
     FM200300 14005KT P6SM SKC